• Join FlightAware (Why Join?)
  • Login
  • US Flag 
12:30PM EDT


 

Airport Tracker/Info


-or-


 

Live Flight TrackerFlight Track Log ✈ JBU1200 ✈ 22-Apr-2012 ✈ KRSW - KBUF

Flight Track Log - Related Links

Times and Time Zones

All times are in EDT time to prevent confusion due to time zone crossing. See the JBU1200 flight status page for this flight to view local times or setup timezone preferences in your user account.

Time Position Orientation Groundspeed Altitude Reporting Facility
EDT Latitude Longitude Course Direction KTS MPH feet Rate Location/Type
09:11PM 26.5675 -81.7523 248° West  Level FlightAware Approximate
09:12PM 26.6932 -81.7500 216° Southwest  Level FlightAware Approximate
09:13PM 26.7959 -81.6874 213° Southwest  Level FlightAware Approximate
09:14PM 26.5178 -81.8919 351° North 218 251 4,400  Level Miami Center
09:15PM 26.5883 -81.9042 351° North 197 227 6,900 2,400 Climbing Miami Center
09:16PM 26.6631 -81.9167 North 235 270 9,200 1,980 Climbing Miami Center
09:17PM 26.7450 -81.9039 25° Northeast 258 297 10,900 1,800 Climbing Miami Center
09:18PM 26.8319 -81.8589 28° Northeast 300 345 12,900 2,100 Climbing Miami Center
09:19PM 26.9217 -81.8044 25° Northeast 327 376 15,100 2,040 Climbing Miami Center
09:20PM 27.0172 -81.7550 349° North 349 402 17,000 2,100 Climbing Miami Center
09:21PM 27.1147 -81.7756 343° North 342 394 19,400 2,160 Climbing Miami Center
09:22PM 27.2239 -81.8128 345° North 363 418 21,400 1,740 Climbing Miami Center
09:23PM 27.3253 -81.8428 341° North 377 434 22,900 1,500 Climbing Miami Center
09:24PM 27.4303 -81.8825 342° North 388 447 24,400 1,500 Climbing Miami Center
09:25PM 27.5272 -81.9172 346° North 393 452 25,900 1,260 Climbing Miami Center
09:26PM 27.6389 -81.9478 351° North 398 458 27,000 1,140 Climbing Miami Center
09:27PM 27.7672 -81.9700 352° North 416 479 28,200 1,200 Climbing Miami Center
09:28PM 27.8836 -81.9892 19° North 426 490 29,400 1,080 Climbing Miami Center
09:29PM 28.0019 -81.9431 41° Northeast 421 484 30,400 900 Climbing Miami Center
09:30PM 28.1014 -81.8439 39° Northeast 433 498 31,300 900 Climbing Miami Center
09:31PM 28.2069 -81.7472 19° North 455 524 32,300 900 Climbing Miami Center
09:32PM 28.3233 -81.7028 North 443 510 33,200 840 Climbing Miami Center
09:33PM 28.4489 -81.6894 North 433 498 34,000 780 Climbing Miami Center
09:34PM 28.5492 -81.6825 North 449 517 34,700 480 Climbing Jacksonville Center
09:35PM 28.6764 -81.6714 North 449 517 35,000 120 Climbing Jacksonville Center
09:36PM 28.8056 -81.6581 North 454 522 35,000  Level Jacksonville Center
09:37PM 28.9328 -81.6469 North 460 529 35,000  Level Jacksonville Center
09:38PM 29.0600 -81.6336 North 460 529 35,000  Level Jacksonville Center
09:39PM 29.1892 -81.6178 North 460 529 35,000  Level Jacksonville Center
09:40PM 29.3308 -81.5967 North 460 529 35,000  Level Jacksonville Center
09:41PM 29.4600 -81.5758 North 465 535 35,000  Level Jacksonville Center
09:42PM 29.5894 -81.5575 North 465 535 35,000  Level Jacksonville Center
09:43PM 29.7186 -81.5367 North 465 535 35,000  Level Jacksonville Center
09:44PM 29.8353 -81.5206 North 465 535 35,000  Level Jacksonville Center
09:45PM 29.9644 -81.4997 North 465 535 35,000  Level Jacksonville Center
09:46PM 30.0917 -81.4786 North 465 535 35,000  Level Jacksonville Center
09:47PM 30.2231 -81.4597 North 465 535 35,000  Level Jacksonville Center
09:48PM 30.3522 -81.4386 North 465 535 35,000  Level Jacksonville Center
09:49PM 30.4814 -81.4197 North 465 535 35,000  Level Jacksonville Center
09:50PM 30.6106 -81.3986 North 465 535 35,000  Level Jacksonville Center
09:51PM 30.7439 -81.3794 North 470 541 35,000  Level Jacksonville Center
09:52PM 30.8753 -81.3556 North 470 541 35,000  Level Jacksonville Center
09:53PM 31.0067 -81.3389 North 470 541 35,000  Level Jacksonville Center
09:54PM 31.1400 -81.3150 North 470 541 35,000  Level Jacksonville Center
09:55PM 31.2733 -81.2931 North 478 550 35,000  Level Jacksonville Center
09:56PM 31.4047 -81.2764 North 483 556 35,000  Level Jacksonville Center
09:57PM 31.5525 -81.2542 North 483 556 35,000  Level Jacksonville Center
09:58PM 31.6714 -81.2350 North 482 555 35,000  Level Jacksonville Center
09:59PM 31.8025 -81.2131 North 482 555 35,000  Level Jacksonville Center
10:00PM 31.9358 -81.1936 North 482 555 35,000  Level Jacksonville Center
10:01PM 32.0672 -81.1717 North 482 555 35,000  Level Jacksonville Center
10:02PM 32.2025 -81.1494 North 482 555 35,000  Level Jacksonville Center
10:03PM 32.3400 -81.1269 North 482 555 35,000  Level Jacksonville Center
10:04PM 32.4881 -81.1069 North 482 555 35,000  Level Jacksonville Center
10:05PM 32.6214 -81.0847 North 487 560 35,000  Level Jacksonville Center
10:06PM 32.7419 -81.0650 North 482 555 35,000  Level Jacksonville Center
10:07PM 32.8733 -81.0425 North 477 549 35,000  Level Jacksonville Center
10:08PM 33.0086 -81.0225 North 477 549 35,000  Level Jacksonville Center
10:09PM 33.1419 -80.9997 North 482 555 35,000  Level Jacksonville Center
10:10PM 33.2772 -80.9794 North 482 555 35,000  Level Jacksonville Center
10:11PM 33.4106 -80.9567 North 482 555 35,000  Level Jacksonville Center
10:12PM 33.5561 -80.9311 North 482 555 35,000  Level Jacksonville Center
10:13PM 33.6914 -80.9081 North 482 555 35,000  Level Jacksonville Center
10:14PM 33.8247 -80.8875 North 482 555 35,000  Level Jacksonville Center
10:15PM 33.9600 -80.8644 North 482 555 35,000  Level Jacksonville Center
10:16PM 34.0931 -80.8414 North 482 555 35,000  Level Jacksonville Center
10:17PM 34.2264 -80.8206 North 482 555 35,000  Level Jacksonville Center
10:19PM 34.4711 -80.7808 North 464 534 35,000  Level Atlanta Center
10:20PM 34.6039 -80.7581 North 476 548 35,000  Level Atlanta Center
10:21PM 34.7392 -80.7350 North 481 554 35,000  Level Atlanta Center
10:22PM 34.8719 -80.7122 North 481 554 35,000  Level Atlanta Center
10:23PM 34.9903 -80.6922 North 481 554 35,000  Level Atlanta Center
10:24PM 35.1294 -80.6661 North 486 559 35,000  Level Atlanta Center
10:25PM 35.2625 -80.6456 North 491 565 35,000  Level Atlanta Center
10:26PM 35.3975 -80.6222 North 491 565 35,000  Level Atlanta Center
10:27PM 35.5344 -80.5986 North 491 565 35,000  Level Atlanta Center
10:28PM 35.6714 -80.5750 North 491 565 35,000  Level Atlanta Center
10:29PM 35.8064 -80.5514 North 491 565 35,000  Level Atlanta Center
10:30PM 35.9536 -80.5219 North 496 571 35,000  Level Atlanta Center
10:31PM 36.0928 -80.4978 North 491 565 35,000  Level Atlanta Center
10:32PM 36.2297 -80.4739 North 491 565 35,000  Level Atlanta Center
10:33PM 36.4461 -80.4386 North 502 578 35,000  Level Washington Center
10:34PM 36.5700 -80.4181 North 502 578 35,000  Level Washington Center
10:35PM 36.7067 -80.3928 North 497 572 35,000  Level Washington Center
10:36PM 36.8453 -80.3675 North 502 578 35,000  Level Washington Center
10:37PM 36.9817 -80.3450 North 502 578 35,000  Level Washington Center
10:38PM 37.1203 -80.3222 North 502 578 35,000  Level Washington Center
10:39PM 37.2758 -80.2928 North 502 578 35,000  Level Washington Center
10:40PM 37.4167 -80.2672 North 510 587 35,000  Level Washington Center
10:41PM 37.5575 -80.2419 North 510 587 35,000  Level Washington Center
10:42PM 37.7003 -80.2167 North 505 581 35,000  Level Washington Center
10:43PM 37.8411 -80.1911 North 505 581 35,000  Level Washington Center
10:44PM 37.9839 -80.1656 North 505 581 35,000  Level Washington Center
10:45PM 38.1142 -80.1419 North 512 589 35,000  Level Washington Center
10:46PM 38.2592 -80.1136 North 517 595 35,000  Level Washington Center
10:47PM 38.3997 -80.0878 North 517 595 35,000  Level Washington Center
10:48PM 38.5425 -80.0619 North 517 595 35,000  Level Washington Center
10:49PM 38.6833 -80.0358 North 517 595 35,000  Level Washington Center
10:50PM 38.8344 -80.0078 North 511 588 35,000  Level Washington Center
10:52PM 39.1150 -79.9492 North 506 582 35,000  Level Cleveland Center
10:53PM 39.2586 -79.9236 North 506 582 35,000  Level Cleveland Center
10:54PM 39.4003 -79.8953 North 506 582 35,000  Level Cleveland Center
10:55PM 39.5439 -79.8669 North 511 588 35,000  Level Cleveland Center
10:56PM 39.6853 -79.8386 North 516 594 35,000  Level Cleveland Center
10:57PM 39.8269 -79.8128 13° North 516 594 35,000  Level Cleveland Center
10:58PM 39.9642 -79.7706 16° North 511 588 35,000  Level Cleveland Center
10:59PM 40.0994 -79.7200 14° North 505 581 35,000  Level Cleveland Center
11:00PM 40.2367 -79.6747 North 505 581 35,000  Level Cleveland Center
11:01PM 40.3761 -79.6456 North 505 581 35,000  Level Cleveland Center
11:02PM 40.5175 -79.6217 North 505 581 35,000  Level Cleveland Center
11:03PM 40.6611 -79.5978 North 505 581 35,000  Level Cleveland Center
11:04PM 40.8047 -79.5736 North 510 587 35,000 -180 Level Cleveland Center
11:05PM 40.9483 -79.5494 North 515 593 34,700 -540 Descending Cleveland Center
11:06PM 41.0942 -79.5225 North 520 598 34,000 -360 Descending Cleveland Center
11:07PM 41.2419 -79.4978 North 520 598 34,000  Level Cleveland Center
11:08PM 41.3833 -79.4733 North 520 598 34,000  Level Cleveland Center
11:09PM 41.5250 -79.4489 18° North 515 593 34,000  Level Cleveland Center
11:10PM 41.6558 -79.3908 33° Northeast 515 593 34,000 -180 Level Cleveland Center
11:11PM 41.7714 -79.2886 18° North 484 557 33,700 -900 Descending Cleveland Center
11:12PM 41.9144 -79.2269 359° North 484 557 32,200 -1,500 Descending Cleveland Center
11:13PM 42.0353 -79.2300 356° North 484 557 30,800 -2,460 Descending Cleveland Center
11:14PM 42.1731 -79.2439 356° North 479 551 27,400 -3,000 Descending Cleveland Center
11:15PM 42.3067 -79.2581 355° North 479 551 24,800 -2,460 Descending Cleveland Center
11:16PM 42.4297 -79.2722 21° North 471 542 22,500 -2,760 Descending Cleveland Center
11:17PM 42.5397 -79.2164 40° Northeast 420 483 19,300 -3,120 Descending Cleveland Center
11:18PM 42.6342 -79.1100 43° Northeast 395 455 16,400 -2,520 Descending Cleveland Center
11:19PM 42.7081 -79.0178 41° Northeast 375 432 14,300 -2,340 Descending Cleveland Center
11:20PM 42.7758 -78.9369 42° Northeast 342 394 11,800 -1,980 Descending Cleveland Center
11:21PM 42.8350 -78.8647 50° Northeast 302 348 10,400 -1,500 Descending Cleveland Center
11:22PM 42.8736 -78.8014 131° Southeast 254 292 8,800 -1,860 Descending Cleveland Center
11:23PM 42.8183 -78.7150 176° South 195 224 6,700 -1,440 Descending Cleveland Center
11:24PM 42.7494 -78.7086 270° West 229 264 6,000 -720 Descending Cleveland Center
11:26PM 42.7500 -78.9000 346° North 217 250 4,400 -1,080 Descending Buffalo TRACON
11:27PM 42.8000 -78.9167 36° Northeast 177 204 2,600 -1,140 Descending Buffalo TRACON
11:28PM 42.8333 -78.8833 66° East 155 178 2,300 -180 Descending Buffalo TRACON
11:29PM 42.8500 -78.8333 36° Northeast 148 170 2,300 -120 Level Buffalo TRACON
11:30PM 42.8833 -78.8000 36° Northeast 125 144 2,100 -240 Descending Buffalo TRACON